createdAt,value
2022-12-24T00:00:40.127Z,5.60
2022-12-24T00:03:07.498Z,5.70
2022-12-24T00:05:34.781Z,5.60
2022-12-24T00:08:02.004Z,5.70
2022-12-24T00:10:29.259Z,5.60
2022-12-24T00:12:56.523Z,5.60
2022-12-24T00:15:23.698Z,5.60
2022-12-24T00:17:50.864Z,5.60
2022-12-24T00:20:18.146Z,5.60
2022-12-24T00:22:45.335Z,5.60
2022-12-24T00:25:12.918Z,5.50
2022-12-24T00:27:40.168Z,5.50
2022-12-24T00:30:08.036Z,5.60
2022-12-24T00:32:35.260Z,5.60
2022-12-24T00:35:02.547Z,5.50
2022-12-24T00:37:29.969Z,5.50
2022-12-24T00:39:57.307Z,5.60
2022-12-24T00:42:24.426Z,5.60
2022-12-24T00:44:51.588Z,5.60
2022-12-24T00:47:18.914Z,5.50
2022-12-24T00:49:46.390Z,5.60
2022-12-24T00:52:13.703Z,5.60
2022-12-24T00:54:40.797Z,5.60
2022-12-24T00:57:07.906Z,5.60
2022-12-24T00:59:35.301Z,5.60
2022-12-24T01:02:02.573Z,5.60
2022-12-24T01:04:48.099Z,5.60
2022-12-24T01:07:15.390Z,5.60
2022-12-24T01:09:42.613Z,5.60
2022-12-24T01:12:09.845Z,5.60
2022-12-24T01:14:38.214Z,5.60
2022-12-24T01:17:05.777Z,5.60
2022-12-24T01:19:33.749Z,5.60
2022-12-24T01:22:01.274Z,5.60
2022-12-24T01:24:28.733Z,5.60
2022-12-24T01:26:56.247Z,5.60
2022-12-24T01:29:23.487Z,5.60
2022-12-24T01:31:50.754Z,5.60
2022-12-24T01:34:17.888Z,5.60
2022-12-24T01:36:45.140Z,5.60
2022-12-24T01:39:12.385Z,5.60
2022-12-24T01:41:57.994Z,5.60
2022-12-24T01:44:36.469Z,5.60
2022-12-24T01:47:11.779Z,5.60
2022-12-24T01:49:43.828Z,5.60
2022-12-24T01:52:23.288Z,5.60
2022-12-24T01:54:55.627Z,5.70
2022-12-24T01:57:30.141Z,5.70
2022-12-24T02:00:02.304Z,5.60
2022-12-24T02:02:29.814Z,5.70
2022-12-24T02:05:03.413Z,5.70
2022-12-24T02:07:31.186Z,5.60
2022-12-24T02:10:01.754Z,5.60
2022-12-24T02:12:32.877Z,5.60
2022-12-24T02:15:00.777Z,5.60
2022-12-24T02:17:42.491Z,5.70
2022-12-24T02:20:49.901Z,5.70
2022-12-24T02:23:47.125Z,5.70
2022-12-24T02:26:50.387Z,5.70
2022-12-24T02:29:32.729Z,5.70
2022-12-24T02:32:06.233Z,5.60
2022-12-24T02:34:45.489Z,5.60
2022-12-24T02:37:23.655Z,5.60
2022-12-24T02:40:00.290Z,5.60
2022-12-24T02:42:34.475Z,5.70
2022-12-24T02:45:20.974Z,5.70
2022-12-24T02:47:49.297Z,5.60
2022-12-24T02:50:17.778Z,5.70
2022-12-24T02:52:46.496Z,5.70
2022-12-24T02:55:24.415Z,5.70
2022-12-24T02:58:24.910Z,5.70
2022-12-24T03:01:17.720Z,5.70
2022-12-24T03:04:16.755Z,5.70
2022-12-24T03:06:52.668Z,5.70
2022-12-24T03:09:33.928Z,5.70
2022-12-24T03:12:11.299Z,5.70
2022-12-24T03:14:41.794Z,5.70
2022-12-24T03:17:10.179Z,5.70
2022-12-24T03:19:38.175Z,5.60
2022-12-24T03:22:10.298Z,5.70
2022-12-24T03:24:38.190Z,5.60
2022-12-24T03:27:07.253Z,5.60
2022-12-24T03:29:34.978Z,5.60
2022-12-24T03:32:04.405Z,5.60
2022-12-24T03:34:31.765Z,5.60
2022-12-24T03:36:59.020Z,5.60
2022-12-24T03:39:26.526Z,5.60
2022-12-24T03:41:53.727Z,5.60
2022-12-24T03:44:20.890Z,5.60
2022-12-24T03:46:48.122Z,5.60
2022-12-24T03:49:15.567Z,5.60
2022-12-24T03:51:42.931Z,5.60
2022-12-24T03:54:10.256Z,5.60
2022-12-24T03:56:37.459Z,5.60
2022-12-24T03:59:04.994Z,5.60
2022-12-24T04:01:32.585Z,5.60
2022-12-24T04:04:00.013Z,5.60
2022-12-24T04:06:27.535Z,5.50
2022-12-24T04:08:54.861Z,5.50
2022-12-24T04:11:22.122Z,5.50
2022-12-24T04:13:49.276Z,5.50
2022-12-24T04:16:17.213Z,5.50
2022-12-24T04:18:44.567Z,5.50
2022-12-24T04:21:12.532Z,5.50
2022-12-24T04:23:41.242Z,5.50
2022-12-24T04:26:10.708Z,5.50
2022-12-24T04:28:38.985Z,5.50
2022-12-24T04:31:12.712Z,5.50
2022-12-24T04:33:39.999Z,5.50
2022-12-24T04:36:08.413Z,5.50
2022-12-24T04:38:35.852Z,5.50
2022-12-24T04:41:19.158Z,5.50
2022-12-24T04:43:50.802Z,5.50
2022-12-24T04:46:22.373Z,5.50
2022-12-24T04:48:51.492Z,5.50
2022-12-24T04:51:20.551Z,5.50
2022-12-24T04:53:48.169Z,5.50
2022-12-24T04:56:21.886Z,5.50
2022-12-24T04:58:49.600Z,5.50
2022-12-24T05:01:20.071Z,5.50
2022-12-24T05:03:47.705Z,5.40
2022-12-24T05:06:18.136Z,5.40
2022-12-24T05:08:45.617Z,5.40
2022-12-24T05:11:14.630Z,5.40
2022-12-24T05:13:47.129Z,5.40
2022-12-24T05:16:16.995Z,5.40
2022-12-24T05:18:44.443Z,5.50
2022-12-24T05:21:17.180Z,5.40
2022-12-24T05:24:06.185Z,5.50
2022-12-24T05:26:59.856Z,5.50
2022-12-24T05:29:27.212Z,5.50
2022-12-24T05:31:54.361Z,5.40
2022-12-24T05:34:21.620Z,5.40
2022-12-24T05:36:48.908Z,5.40
2022-12-24T05:39:17.640Z,5.40
2022-12-24T05:41:45.832Z,5.40
2022-12-24T05:44:13.554Z,5.40
2022-12-24T05:46:41.092Z,5.40
2022-12-24T05:49:08.446Z,5.40
2022-12-24T05:51:35.629Z,5.40
2022-12-24T05:54:02.787Z,5.30
2022-12-24T05:56:30.085Z,5.30
2022-12-24T05:58:58.212Z,5.30
2022-12-24T06:01:26.368Z,5.30
2022-12-24T06:03:54.236Z,5.30
2022-12-24T06:06:24.410Z,5.30
2022-12-24T06:08:53.294Z,5.30
2022-12-24T06:11:23.694Z,5.30
2022-12-24T06:13:51.300Z,5.30
2022-12-24T06:16:20.564Z,5.30
2022-12-24T06:18:48.493Z,5.30
2022-12-24T06:21:16.457Z,5.30
2022-12-24T06:23:45.225Z,5.30
2022-12-24T06:26:15.331Z,5.30
2022-12-24T06:28:43.631Z,5.20
2022-12-24T06:31:15.181Z,5.20
2022-12-24T06:33:42.498Z,5.30
2022-12-24T06:36:17.557Z,5.20
2022-12-24T06:38:47.131Z,5.20
2022-12-24T06:41:15.347Z,5.30
2022-12-24T06:43:47.748Z,5.30
2022-12-24T06:46:16.059Z,5.30
2022-12-24T06:48:45.054Z,5.30
2022-12-24T06:51:13.371Z,5.30
2022-12-24T06:53:41.434Z,5.20
2022-12-24T06:56:10.944Z,5.20
2022-12-24T06:58:38.314Z,5.20
2022-12-24T07:01:08.219Z,5.20
2022-12-24T07:03:36.131Z,5.20
2022-12-24T07:06:03.524Z,5.20
2022-12-24T07:08:33.827Z,5.20
2022-12-24T07:11:00.987Z,5.20
2022-12-24T07:13:28.476Z,5.20
2022-12-24T07:16:03.793Z,5.20
2022-12-24T07:18:31.364Z,5.20
2022-12-24T07:20:59.036Z,5.20
2022-12-24T07:23:26.599Z,5.20
2022-12-24T07:25:53.887Z,5.20
2022-12-24T07:28:27.450Z,5.20
2022-12-24T07:30:58.948Z,5.20
2022-12-24T07:33:26.831Z,5.20
2022-12-24T07:36:05.467Z,5.20
2022-12-24T07:38:33.494Z,5.20
2022-12-24T07:41:01.187Z,5.20
2022-12-24T07:43:28.883Z,5.20
2022-12-24T07:45:59.461Z,5.20
2022-12-24T07:48:29.099Z,5.20
2022-12-24T07:50:57.510Z,5.20
2022-12-24T07:53:26.230Z,5.10
2022-12-24T07:55:54.148Z,5.10
2022-12-24T07:58:21.855Z,5.20
2022-12-24T08:00:49.009Z,5.20
2022-12-24T08:03:21.796Z,5.20
2022-12-24T08:05:49.114Z,5.20
2022-12-24T08:08:16.508Z,5.20
2022-12-24T08:10:45.281Z,5.20
2022-12-24T08:13:13.455Z,5.20
2022-12-24T08:15:40.973Z,5.10
2022-12-24T08:18:08.131Z,5.10
2022-12-24T08:20:41.643Z,5.10
2022-12-24T08:23:09.643Z,5.10
2022-12-24T08:25:37.815Z,5.10
2022-12-24T08:28:06.159Z,5.10
2022-12-24T08:30:33.843Z,5.10
2022-12-24T08:33:01.181Z,5.10
2022-12-24T08:35:28.590Z,5.20
2022-12-24T08:37:55.907Z,5.10
2022-12-24T08:40:23.262Z,5.10
2022-12-24T08:42:50.638Z,5.10
2022-12-24T08:45:18.514Z,5.20
2022-12-24T08:47:45.720Z,5.20
2022-12-24T08:50:17.182Z,5.20
2022-12-24T08:52:44.610Z,5.20
2022-12-24T08:55:11.680Z,5.20
2022-12-24T08:57:39.000Z,5.20
2022-12-24T09:00:07.628Z,5.20
2022-12-24T09:02:34.939Z,5.20
2022-12-24T09:05:02.410Z,5.20
2022-12-24T09:07:29.604Z,5.20
2022-12-24T09:09:56.883Z,5.20
2022-12-24T09:12:24.430Z,5.20
2022-12-24T09:14:52.970Z,5.20
2022-12-24T09:17:22.140Z,5.20
2022-12-24T09:19:49.355Z,5.20
2022-12-24T09:22:17.266Z,5.20
2022-12-24T09:24:44.743Z,5.20
2022-12-24T09:27:12.220Z,5.20
2022-12-24T09:29:40.824Z,5.20
2022-12-24T09:32:08.855Z,5.30
2022-12-24T09:34:36.157Z,5.30
2022-12-24T09:37:03.393Z,5.30
2022-12-24T09:39:30.757Z,5.30
2022-12-24T09:42:04.089Z,5.30
2022-12-24T09:44:31.378Z,5.40
2022-12-24T09:47:09.891Z,5.40
2022-12-24T09:49:44.937Z,5.40
2022-12-24T09:52:16.974Z,5.50
2022-12-24T09:54:52.740Z,5.40
2022-12-24T09:57:28.541Z,5.40
2022-12-24T09:59:56.626Z,5.40
2022-12-24T10:02:24.525Z,5.30
2022-12-24T10:04:51.874Z,5.30
2022-12-24T10:07:18.977Z,5.30
2022-12-24T10:10:16.510Z,5.30
2022-12-24T10:13:00.061Z,5.30
2022-12-24T10:15:53.747Z,5.40
2022-12-24T10:18:36.406Z,5.40
2022-12-24T10:21:37.759Z,5.50
2022-12-24T10:24:19.742Z,5.50
2022-12-24T10:27:01.436Z,5.60
2022-12-24T10:29:32.378Z,5.60
2022-12-24T10:32:06.518Z,5.60
2022-12-24T10:34:42.121Z,5.60
2022-12-24T10:37:17.176Z,5.70
2022-12-24T10:39:44.722Z,5.60
2022-12-24T10:42:13.589Z,5.70
2022-12-24T10:44:40.921Z,5.70
2022-12-24T10:47:10.922Z,5.70
2022-12-24T10:49:44.422Z,5.70
2022-12-24T10:52:25.149Z,5.70
2022-12-24T10:55:12.856Z,5.70
2022-12-24T10:57:41.231Z,5.70
2022-12-24T11:00:21.175Z,5.70
2022-12-24T11:02:49.988Z,5.70
2022-12-24T11:05:33.959Z,5.70
2022-12-24T11:08:16.041Z,5.70
2022-12-24T11:11:17.974Z,5.70
2022-12-24T11:13:52.295Z,5.80
2022-12-24T11:16:29.182Z,5.80
2022-12-24T11:19:01.917Z,5.90
2022-12-24T11:21:41.140Z,5.90
2022-12-24T11:24:29.853Z,5.90
2022-12-24T11:27:44.824Z,6.00
2022-12-24T11:30:26.344Z,6.00
2022-12-24T11:33:19.466Z,6.00
2022-12-24T11:35:52.100Z,6.10
2022-12-24T11:38:25.857Z,6.10
2022-12-24T11:41:03.470Z,6.10
2022-12-24T11:43:45.730Z,6.10
2022-12-24T11:46:17.004Z,6.10
2022-12-24T11:48:44.741Z,6.20
2022-12-24T11:51:26.840Z,6.20
2022-12-24T11:54:16.687Z,6.30
2022-12-24T11:56:45.820Z,6.30
2022-12-24T11:59:47.548Z,6.30
2022-12-24T12:02:40.250Z,6.40
2022-12-24T12:05:19.015Z,6.40
2022-12-24T12:07:50.577Z,6.40
2022-12-24T12:10:26.525Z,6.40
2022-12-24T12:13:14.686Z,6.40
2022-12-24T12:15:46.425Z,6.50
2022-12-24T12:18:28.367Z,6.50
2022-12-24T12:21:12.763Z,6.50
2022-12-24T12:24:03.847Z,6.60
2022-12-24T12:26:33.517Z,6.60
2022-12-24T12:29:22.257Z,6.60
2022-12-24T12:31:55.515Z,6.50
2022-12-24T12:34:56.083Z,6.60
2022-12-24T12:37:42.094Z,6.60
2022-12-24T12:40:17.581Z,6.50
2022-12-24T12:42:57.690Z,6.50
2022-12-24T12:45:43.978Z,6.60
2022-12-24T12:49:11.454Z,6.60
2022-12-24T12:51:49.530Z,6.60
2022-12-24T12:54:40.968Z,6.60
2022-12-24T12:57:13.920Z,6.70
2022-12-24T13:00:02.661Z,6.70
2022-12-24T13:02:39.315Z,6.70
2022-12-24T13:05:31.152Z,6.80
2022-12-24T13:08:13.054Z,6.80
2022-12-24T13:10:58.010Z,6.80
2022-12-24T13:13:37.463Z,6.90
2022-12-24T13:16:35.427Z,6.90
2022-12-24T13:19:30.336Z,6.90
2022-12-24T13:22:01.574Z,7.00
2022-12-24T13:24:31.413Z,7.00
2022-12-24T13:27:07.055Z,7.00
2022-12-24T13:29:42.197Z,7.10
2022-12-24T13:32:21.638Z,7.00
2022-12-24T13:35:04.293Z,7.10
2022-12-24T13:37:31.560Z,7.10
2022-12-24T13:40:11.440Z,7.20
2022-12-24T13:42:52.337Z,7.20
2022-12-24T13:45:31.988Z,7.20
2022-12-24T13:48:08.127Z,7.20
2022-12-24T13:50:42.091Z,7.20
2022-12-24T13:53:26.672Z,7.20
2022-12-24T13:55:57.234Z,7.30
2022-12-24T13:58:26.106Z,7.20
2022-12-24T14:00:59.554Z,7.20
2022-12-24T14:03:27.061Z,7.20
2022-12-24T14:06:09.206Z,7.30
2022-12-24T14:08:44.664Z,7.30
2022-12-24T14:11:21.645Z,7.30
2022-12-24T14:13:48.860Z,7.30
2022-12-24T14:16:44.225Z,7.30
2022-12-24T14:19:22.107Z,7.30
2022-12-24T14:22:20.873Z,7.30
2022-12-24T14:24:57.211Z,7.30
2022-12-24T14:27:42.436Z,7.30
2022-12-24T14:30:23.745Z,7.30
2022-12-24T14:32:52.005Z,7.30
2022-12-24T14:35:23.947Z,7.30
2022-12-24T14:37:57.508Z,7.30
2022-12-24T14:40:34.697Z,7.30
2022-12-24T14:43:24.000Z,7.20
2022-12-24T14:46:17.543Z,7.20
2022-12-24T14:49:12.369Z,7.20
2022-12-24T14:52:18.366Z,7.10
2022-12-24T14:54:55.107Z,7.10
2022-12-24T14:57:25.694Z,7.00
2022-12-24T15:00:02.553Z,6.90
2022-12-24T15:02:52.537Z,6.90
2022-12-24T15:05:33.194Z,6.80
2022-12-24T15:08:03.610Z,6.70
2022-12-24T15:10:41.852Z,6.70
2022-12-24T15:13:38.195Z,6.70
2022-12-24T15:16:12.990Z,6.70
2022-12-24T15:18:47.091Z,6.70
2022-12-24T15:21:41.554Z,6.60
2022-12-24T15:24:46.490Z,6.60
2022-12-24T15:27:25.938Z,6.60
2022-12-24T15:29:59.421Z,6.60
2022-12-24T15:32:26.643Z,6.60
2022-12-24T15:34:55.561Z,6.60
2022-12-24T15:37:39.189Z,6.60
2022-12-24T15:40:19.541Z,6.60
2022-12-24T15:42:47.128Z,6.60
2022-12-24T15:45:28.408Z,6.60
2022-12-24T15:48:00.525Z,6.60
2022-12-24T15:50:32.132Z,6.60
2022-12-24T15:53:18.817Z,6.60
2022-12-24T15:56:10.557Z,6.50
2022-12-24T15:58:48.658Z,6.50
2022-12-24T16:01:16.185Z,6.50
2022-12-24T16:03:49.509Z,6.50
2022-12-24T16:06:16.968Z,6.50
2022-12-24T16:08:45.827Z,6.60
2022-12-24T16:11:19.649Z,6.60
2022-12-24T16:13:55.825Z,6.60
2022-12-24T16:16:34.134Z,6.60
2022-12-24T16:19:02.829Z,6.60
2022-12-24T16:21:31.922Z,6.60
2022-12-24T16:24:23.881Z,6.60
2022-12-24T16:26:51.601Z,6.60
2022-12-24T16:29:22.871Z,6.60
2022-12-24T16:31:57.313Z,6.60
2022-12-24T16:34:27.910Z,6.60
2022-12-24T16:36:56.190Z,6.60
2022-12-24T16:39:50.592Z,6.50
2022-12-24T16:42:36.549Z,6.60
2022-12-24T16:45:04.072Z,6.60
2022-12-24T16:47:41.778Z,6.60
2022-12-24T16:50:15.836Z,6.60
2022-12-24T16:52:43.078Z,6.70
2022-12-24T16:55:14.264Z,6.70
2022-12-24T16:57:43.418Z,6.70
2022-12-24T17:00:28.952Z,6.70
2022-12-24T17:02:56.318Z,6.70
2022-12-24T17:05:24.172Z,6.70
2022-12-24T17:07:51.525Z,6.70
2022-12-24T17:10:19.202Z,6.80
2022-12-24T17:12:46.455Z,6.80
2022-12-24T17:15:13.865Z,6.80
2022-12-24T17:17:41.001Z,6.90
2022-12-24T17:20:09.019Z,6.90
2022-12-24T17:22:37.295Z,6.90
2022-12-24T17:25:05.898Z,6.90
2022-12-24T17:27:33.920Z,6.90
2022-12-24T17:30:01.396Z,6.90
2022-12-24T17:32:28.665Z,7.00
2022-12-24T17:35:00.322Z,7.00
2022-12-24T17:37:28.258Z,7.10
2022-12-24T17:39:56.120Z,7.10
2022-12-24T17:42:23.297Z,7.20
2022-12-24T17:44:50.504Z,7.30
2022-12-24T17:47:17.896Z,7.40
2022-12-24T17:49:45.137Z,7.50
2022-12-24T17:52:12.519Z,7.50
2022-12-24T17:54:40.026Z,7.60
2022-12-24T17:57:07.294Z,7.60
2022-12-24T17:59:34.708Z,7.60
2022-12-24T18:02:02.113Z,7.70
2022-12-24T18:04:29.520Z,7.70
2022-12-24T18:07:02.398Z,7.70
2022-12-24T18:09:30.931Z,7.70
2022-12-24T18:11:58.268Z,7.80
2022-12-24T18:14:25.552Z,7.80
2022-12-24T18:16:52.629Z,7.80
2022-12-24T18:19:20.017Z,7.90
2022-12-24T18:21:47.247Z,7.90
2022-12-24T18:24:17.361Z,7.90
2022-12-24T18:26:46.100Z,7.90
2022-12-24T18:29:13.701Z,7.90
2022-12-24T18:31:41.784Z,8.00
2022-12-24T18:34:14.146Z,7.90
2022-12-24T18:36:41.893Z,8.00
2022-12-24T18:39:09.135Z,8.00
2022-12-24T18:41:36.454Z,8.10
2022-12-24T18:44:03.689Z,8.10
2022-12-24T18:46:33.564Z,8.10
2022-12-24T18:49:01.834Z,8.10
2022-12-24T18:51:35.512Z,8.10
2022-12-24T18:54:04.191Z,8.10
2022-12-24T18:56:32.034Z,8.20
2022-12-24T18:59:02.557Z,8.20
2022-12-24T19:01:32.437Z,8.20
2022-12-24T19:04:00.846Z,8.20
2022-12-24T19:06:28.431Z,8.20
2022-12-24T19:08:59.115Z,8.20
2022-12-24T19:11:29.355Z,8.30
2022-12-24T19:13:58.362Z,8.30
2022-12-24T19:16:27.020Z,8.20
2022-12-24T19:18:54.433Z,8.20
2022-12-24T19:21:21.724Z,8.10
2022-12-24T19:23:49.436Z,8.10
2022-12-24T19:26:18.736Z,8.10
2022-12-24T19:28:46.499Z,8.10
2022-12-24T19:31:17.168Z,8.10
2022-12-24T19:33:53.375Z,8.10
2022-12-24T19:36:23.634Z,8.10
2022-12-24T19:38:51.138Z,8.10
2022-12-24T19:41:30.018Z,8.10
2022-12-24T19:44:00.352Z,8.10
2022-12-24T19:46:33.948Z,8.10
2022-12-24T19:49:05.488Z,8.10
2022-12-24T19:51:33.860Z,8.10
2022-12-24T19:54:01.919Z,8.10
2022-12-24T19:56:31.342Z,8.10
2022-12-24T19:58:59.738Z,8.10
2022-12-24T20:01:29.364Z,8.00
2022-12-24T20:03:57.605Z,8.00
2022-12-24T20:06:27.980Z,8.00
2022-12-24T20:09:05.385Z,8.00
2022-12-24T20:11:32.978Z,8.00
2022-12-24T20:14:02.380Z,8.00
2022-12-24T20:16:29.976Z,8.00
2022-12-24T20:19:03.782Z,8.00
2022-12-24T20:21:31.976Z,8.00
2022-12-24T20:23:59.232Z,7.90
2022-12-24T20:26:29.124Z,8.00
2022-12-24T20:28:56.698Z,8.00
2022-12-24T20:31:29.529Z,7.90
2022-12-24T20:33:57.783Z,7.90
2022-12-24T20:36:26.310Z,7.90
2022-12-24T20:38:54.119Z,7.90
2022-12-24T20:41:23.048Z,7.90
2022-12-24T20:43:50.760Z,7.80
2022-12-24T20:46:20.136Z,7.80
2022-12-24T20:48:47.671Z,7.70
2022-12-24T20:51:24.956Z,7.70
2022-12-24T20:53:55.563Z,7.60
2022-12-24T20:56:23.402Z,7.50
2022-12-24T20:58:51.712Z,7.50
2022-12-24T21:01:23.059Z,7.40
2022-12-24T21:03:50.842Z,7.30
2022-12-24T21:06:19.729Z,7.30
2022-12-24T21:08:50.079Z,7.20
2022-12-24T21:11:36.363Z,7.10
2022-12-24T21:14:03.688Z,7.10
2022-12-24T21:16:32.773Z,7.00
2022-12-24T21:19:00.524Z,7.00
2022-12-24T21:21:27.902Z,7.00
2022-12-24T21:23:55.369Z,6.90
2022-12-24T21:26:25.702Z,6.90
2022-12-24T21:28:53.940Z,6.90
2022-12-24T21:31:21.816Z,6.80
2022-12-24T21:33:50.230Z,6.80
2022-12-24T21:36:17.893Z,6.70
2022-12-24T21:38:47.001Z,6.80
2022-12-24T21:41:17.498Z,6.70
2022-12-24T21:43:46.303Z,6.70
2022-12-24T21:46:17.613Z,6.60
2022-12-24T21:49:03.727Z,6.60
2022-12-24T21:51:31.261Z,6.60
2022-12-24T21:54:17.008Z,6.50
2022-12-24T21:57:02.858Z,6.50
2022-12-24T21:59:30.693Z,6.40
2022-12-24T22:01:58.364Z,6.40
2022-12-24T22:04:29.342Z,6.40
2022-12-24T22:07:15.037Z,6.40
2022-12-24T22:10:00.545Z,6.40
2022-12-24T22:12:32.335Z,6.50
2022-12-24T22:15:00.039Z,6.50
2022-12-24T22:17:28.433Z,6.50
2022-12-24T22:19:55.849Z,6.50
2022-12-24T22:22:24.126Z,6.40
2022-12-24T22:24:51.605Z,6.40
2022-12-24T22:27:19.111Z,6.40
2022-12-24T22:29:50.193Z,6.30
2022-12-24T22:32:17.436Z,6.30
2022-12-24T22:34:45.280Z,6.30
2022-12-24T22:37:12.592Z,6.20
2022-12-24T22:39:39.904Z,6.10
2022-12-24T22:42:07.325Z,6.00
2022-12-24T22:44:34.555Z,5.90
2022-12-24T22:47:02.953Z,6.00
2022-12-24T22:49:31.369Z,5.90
2022-12-24T22:51:59.057Z,5.90
2022-12-24T22:54:29.388Z,5.90
2022-12-24T22:56:56.783Z,5.80
2022-12-24T22:59:24.213Z,5.80
2022-12-24T23:01:52.894Z,5.80
2022-12-24T23:04:20.617Z,5.80
2022-12-24T23:06:48.064Z,5.80
2022-12-24T23:09:19.131Z,5.70
2022-12-24T23:11:46.369Z,5.70
2022-12-24T23:14:37.391Z,5.70
2022-12-24T23:17:05.392Z,5.70
2022-12-24T23:19:33.834Z,5.60
2022-12-24T23:22:02.776Z,5.60
2022-12-24T23:24:30.232Z,5.60
2022-12-24T23:26:58.875Z,5.60
2022-12-24T23:29:26.072Z,5.60
2022-12-24T23:31:53.156Z,5.60
2022-12-24T23:34:20.465Z,5.50
2022-12-24T23:36:47.578Z,5.50
2022-12-24T23:39:15.134Z,5.50
2022-12-24T23:42:07.205Z,5.50
2022-12-24T23:44:34.285Z,5.40
2022-12-24T23:47:01.543Z,5.40
2022-12-24T23:49:28.682Z,5.40
2022-12-24T23:51:55.910Z,5.40
2022-12-24T23:54:23.111Z,5.40
2022-12-24T23:56:50.209Z,5.30
2022-12-24T23:59:17.413Z,5.30
